Sunrise, Florida
Current Conditions -  °F | °C
As of 2:53 PM on Wednesday 17 Dec 2014 (Local Time) from KFXE Reporting Station
Clear Clear  
Wind Chill: 79°   Ceiling: Unl
Heat Index: 80°   Visibility: 10mi
Dew Point: 55°   Wind: 5mph
Humidity: 44%   Direction: NA
Pressure: 30.09"   Gusts: NA
Location:  26.15°N, 80.33°W
Report Text: KFXE 171953Z VRB04KT 10SM CLR 26/13 A3009 RMK AO2 SLP193 T02610128
Loading
Personal Weather Stations






























Interactive Weather Map New forecast layout! Learn more

10-Day Weather Forecast

Advertisements
Track Severe Weather on mobile